Time;durP1;ratioP1;P1;durP2;ratioP2;P2;SDS_P1;SDS_P2;PMS_P1;PMS_P2;Temp;Humidity;BMP_temperature;BMP_pressure;BME280_temperature;BME280_humidity;BME280_pressure;Samples;Min_cycle;Max_cycle;Signal;HPM_P1;HPM_P2
2022/02/21 00:00:19;;;;;;;2.67;0.73;;;11.10;98.40;;;;;;5047461;28;20206;-59
2022/02/21 00:02:47;;;;;;;1.80;0.93;;;11.20;98.40;;;;;;5039088;28;20235;-60
2022/02/21 00:05:17;;;;;;;2.42;1.10;;;11.00;98.20;;;;;;5040340;28;20189;-59
2022/02/21 00:07:44;;;;;;;1.92;1.10;;;11.00;98.10;;;;;;5044076;28;20194;-59
2022/02/21 00:10:11;;;;;;;2.25;1.00;;;11.00;98.10;;;;;;5053065;28;20198;-59
2022/02/21 00:12:37;;;;;;;1.75;1.10;;;11.20;98.20;;;;;;5042230;28;20282;-60
2022/02/21 00:15:04;;;;;;;2.40;1.20;;;11.20;98.10;;;;;;5043975;28;20218;-59
2022/02/21 00:17:29;;;;;;;1.38;0.80;;;11.20;97.90;;;;;;5047696;28;20181;-59
2022/02/21 00:19:55;;;;;;;1.27;0.70;;;11.20;97.80;;;;;;5037216;28;20182;-60
2022/02/21 00:22:21;;;;;;;2.23;1.07;;;11.10;97.70;;;;;;5035599;28;20245;-60
2022/02/21 00:24:46;;;;;;;2.10;1.27;;;11.20;97.60;;;;;;5051746;28;20434;-60
2022/02/21 00:27:12;;;;;;;1.80;0.80;;;11.10;97.40;;;;;;5050700;28;20694;-60
2022/02/21 00:29:37;;;;;;;1.20;0.90;;;11.10;97.40;;;;;;5064361;28;20573;-59
2022/02/21 00:32:03;;;;;;;1.37;0.90;;;11.30;97.40;;;;;;5037694;28;20759;-58
2022/02/21 00:34:29;;;;;;;1.05;0.93;;;11.20;97.40;;;;;;5033726;28;20541;-59
2022/02/21 00:36:54;;;;;;;1.67;1.03;;;11.30;97.40;;;;;;5036919;28;20183;-59
2022/02/21 00:39:20;;;;;;;4.00;1.27;;;11.30;97.50;;;;;;5052025;28;20181;-58
2022/02/21 00:41:45;;;;;;;3.00;1.00;;;11.30;97.80;;;;;;5037725;28;20204;-59
2022/02/21 00:44:11;;;;;;;1.93;0.90;;;11.20;97.90;;;;;;5040805;28;20233;-59
2022/02/21 00:46:37;;;;;;;2.03;0.97;;;11.10;97.70;;;;;;5038379;28;20241;-61
2022/02/21 00:49:05;;;;;;;3.53;1.00;;;11.30;98.00;;;;;;5037980;28;20324;-58
2022/02/21 00:51:31;;;;;;;2.22;1.20;;;11.40;98.20;;;;;;5049382;28;20216;-59
2022/02/21 00:53:56;;;;;;;2.90;1.17;;;11.20;98.60;;;;;;5051114;28;20560;-59
2022/02/21 00:56:23;;;;;;;3.00;1.20;;;11.20;99.40;;;;;;5056192;28;20265;-59
2022/02/21 00:58:48;;;;;;;1.50;1.02;;;11.10;99.80;;;;;;5054712;28;20190;-59
2022/02/21 01:01:14;;;;;;;1.30;0.97;;;11.10;99.90;;;;;;5054034;28;20929;-59
2022/02/21 01:03:40;;;;;;;2.73;1.20;;;11.10;99.80;;;;;;5051549;28;20199;-58
2022/02/21 01:06:05;;;;;;;3.70;1.30;;;11.10;99.90;;;;;;5047500;28;20177;-58
2022/02/21 01:08:31;;;;;;;2.43;1.23;;;11.00;99.90;;;;;;5049225;28;20186;-60
2022/02/21 01:10:57;;;;;;;3.50;1.47;;;10.90;99.90;;;;;;5036998;28;20215;-60
2022/02/21 01:13:22;;;;;;;3.50;1.30;;;10.90;99.90;;;;;;5038013;28;20183;-59
2022/02/21 01:15:48;;;;;;;2.80;1.07;;;10.90;99.90;;;;;;5034514;28;20751;-59
2022/02/21 01:18:14;;;;;;;2.20;1.20;;;10.80;99.90;;;;;;5057089;28;20194;-58
2022/02/21 01:20:40;;;;;;;2.03;1.00;;;11.00;99.90;;;;;;5041652;28;20194;-58
2022/02/21 01:23:06;;;;;;;4.40;1.00;;;10.80;99.90;;;;;;5058158;28;20234;-59
2022/02/21 01:25:31;;;;;;;1.80;1.00;;;11.00;99.90;;;;;;5051246;28;20196;-59
2022/02/21 01:27:57;;;;;;;1.00;0.87;;;10.60;99.90;;;;;;5026034;28;20306;-58
2022/02/21 01:30:22;;;;;;;2.20;1.10;;;11.00;99.90;;;;;;5040593;28;20187;-58
2022/02/21 01:32:48;;;;;;;1.53;0.80;;;10.70;99.90;;;;;;5039520;28;20717;-59
2022/02/21 01:35:14;;;;;;;1.80;0.80;;;10.60;99.90;;;;;;5035325;28;20275;-60
2022/02/21 01:37:39;;;;;;;6.00;1.40;;;10.70;99.90;;;;;;5041582;28;20193;-58
2022/02/21 01:40:09;;;;;;;4.30;1.23;;;10.60;99.90;;;;;;5057366;28;20438;-58
2022/02/21 01:42:35;;;;;;;1.95;0.75;;;10.60;99.90;;;;;;5054251;28;20297;-60
2022/02/21 01:45:02;;;;;;;1.70;1.10;;;10.50;99.90;;;;;;5027303;28;20599;-59
2022/02/21 01:47:27;;;;;;;1.00;0.90;;;10.50;99.90;;;;;;5051163;28;20185;-59
2022/02/21 01:49:53;;;;;;;3.07;0.97;;;10.50;99.90;;;;;;5026900;28;20675;-59
2022/02/21 01:52:19;;;;;;;1.13;0.80;;;10.60;99.90;;;;;;5045961;28;20223;-58
2022/02/21 01:54:45;;;;;;;1.63;0.97;;;10.60;99.90;;;;;;5042527;28;20221;-59
2022/02/21 01:57:11;;;;;;;1.70;1.08;;;10.60;99.90;;;;;;5055209;28;20435;-59
2022/02/21 01:59:40;;;;;;;1.95;0.82;;;10.60;99.90;;;;;;5053309;28;20635;-59
2022/02/21 02:02:07;;;;;;;1.00;0.80;;;10.70;99.90;;;;;;5045610;28;20214;-59
2022/02/21 02:04:33;;;;;;;2.97;1.42;;;10.80;99.90;;;;;;5027255;28;20310;-59
2022/02/21 02:07:01;;;;;;;1.00;0.75;;;10.60;99.90;;;;;;5038108;28;20189;-59
2022/02/21 02:09:26;;;;;;;1.20;0.70;;;10.70;99.90;;;;;;5055250;28;20194;-60
2022/02/21 02:11:52;;;;;;;1.57;0.60;;;10.60;99.90;;;;;;5045018;28;20715;-59
2022/02/21 02:14:35;;;;;;;0.93;0.80;;;10.50;99.90;;;;;;5044171;28;20194;-59
2022/02/21 02:17:03;;;;;;;1.38;0.90;;;10.80;99.90;;;;;;5044337;28;20186;-60
2022/02/21 02:19:29;;;;;;;0.70;0.70;;;10.70;99.90;;;;;;5030831;28;20200;-59
2022/02/21 02:21:58;;;;;;;1.83;0.70;;;10.80;99.90;;;;;;5044715;28;20225;-59
2022/02/21 02:24:25;;;;;;;1.55;0.70;;;10.70;99.90;;;;;;5042130;28;20183;-59
2022/02/21 02:26:54;;;;;;;1.35;0.80;;;10.90;99.90;;;;;;5053154;28;20202;-60
2022/02/21 02:29:23;;;;;;;2.10;0.75;;;10.60;99.90;;;;;;5040201;28;20197;-61
2022/02/21 02:31:49;;;;;;;1.48;0.80;;;10.70;99.90;;;;;;5029587;28;20242;-61
2022/02/21 02:34:16;;;;;;;1.00;0.87;;;10.80;99.90;;;;;;5025667;28;20227;-60
2022/02/21 02:36:44;;;;;;;3.08;0.90;;;10.70;99.90;;;;;;5042239;28;20189;-59
2022/02/21 02:39:12;;;;;;;1.20;0.80;;;10.50;99.90;;;;;;5029455;28;20190;-61
2022/02/21 02:41:38;;;;;;;2.60;1.00;;;10.50;99.90;;;;;;5049636;28;20608;-61
2022/02/21 02:44:04;;;;;;;1.23;0.70;;;10.60;99.90;;;;;;5052060;28;20594;-61
2022/02/21 02:46:29;;;;;;;1.53;0.70;;;10.60;99.90;;;;;;5056840;28;20188;-59
2022/02/21 02:48:55;;;;;;;2.13;1.00;;;10.50;99.90;;;;;;5035632;28;20318;-59
2022/02/21 02:51:20;;;;;;;1.00;0.70;;;10.50;99.90;;;;;;5037963;28;20520;-60
2022/02/21 02:53:46;;;;;;;2.13;0.97;;;10.30;99.90;;;;;;5045182;28;20201;-60
2022/02/21 02:56:11;;;;;;;1.40;0.87;;;10.20;99.90;;;;;;5058896;28;20600;-60
2022/02/21 02:58:37;;;;;;;2.87;0.80;;;10.30;99.90;;;;;;5047747;28;20214;-60
2022/02/21 03:01:03;;;;;;;0.90;0.70;;;10.50;99.90;;;;;;5046812;28;20236;-60
2022/02/21 03:03:29;;;;;;;2.00;0.90;;;10.20;99.90;;;;;;5042515;28;20251;-60
2022/02/21 03:05:56;;;;;;;2.40;0.60;;;10.30;99.90;;;;;;5024565;28;20192;-60
2022/02/21 03:08:22;;;;;;;1.95;0.80;;;10.40;99.90;;;;;;5030780;28;20187;-59
2022/02/21 03:10:47;;;;;;;1.00;0.90;;;10.20;99.90;;;;;;5054564;28;20210;-60
2022/02/21 03:13:13;;;;;;;1.00;0.70;;;10.50;99.90;;;;;;5043244;28;20555;-60
2022/02/21 03:15:39;;;;;;;1.10;0.80;;;10.30;99.90;;;;;;5038987;28;20191;-60
2022/02/21 03:18:04;;;;;;;1.67;0.87;;;10.40;99.90;;;;;;5042503;28;20332;-59
2022/02/21 03:20:30;;;;;;;1.07;0.90;;;10.40;99.90;;;;;;5056781;28;20182;-59
2022/02/21 03:22:55;;;;;;;1.20;0.80;;;10.40;99.90;;;;;;5057063;28;20577;-60
2022/02/21 03:25:21;;;;;;;1.10;0.90;;;10.80;99.90;;;;;;5052046;28;20178;-59
2022/02/21 03:27:47;;;;;;;0.93;0.63;;;10.50;99.90;;;;;;5062809;28;20179;-59
2022/02/21 03:30:13;;;;;;;0.90;0.70;;;10.60;99.90;;;;;;5041135;28;20187;-61
2022/02/21 03:32:39;;;;;;;1.00;0.80;;;10.50;99.90;;;;;;5042370;28;20219;-59
2022/02/21 03:35:05;;;;;;;0.90;0.70;;;10.80;99.90;;;;;;5044052;28;20642;-60
2022/02/21 03:37:32;;;;;;;1.10;0.60;;;10.70;99.90;;;;;;5051989;28;20178;-60
2022/02/21 03:39:57;;;;;;;0.90;0.90;;;10.60;99.90;;;;;;5055827;28;20183;-60
2022/02/21 03:42:23;;;;;;;1.60;0.80;;;10.90;99.90;;;;;;5047613;28;20683;-59
2022/02/21 03:44:48;;;;;;;1.13;0.70;;;10.50;99.90;;;;;;5058969;28;20194;-59
2022/02/21 03:47:14;;;;;;;1.43;0.73;;;10.50;99.90;;;;;;5061402;28;20724;-59
2022/02/21 03:49:40;;;;;;;1.67;0.60;;;9.30;99.90;;;;;;5054675;28;20189;-59
2022/02/21 03:52:06;;;;;;;1.27;0.63;;;8.20;99.90;;;;;;5053350;28;20218;-58
2022/02/21 03:54:31;;;;;;;0.70;0.50;;;7.30;99.90;;;;;;5054592;28;20208;-59
2022/02/21 03:56:57;;;;;;;0.93;0.60;;;6.60;99.90;;;;;;5047195;28;20186;-58
2022/02/21 03:59:23;;;;;;;1.30;0.77;;;6.10;99.90;;;;;;5033994;28;20191;-58
2022/02/21 04:01:49;;;;;;;1.17;0.70;;;6.20;99.90;;;;;;5065579;28;20651;-58
2022/02/21 04:04:14;;;;;;;0.70;0.60;;;5.90;99.90;;;;;;5032688;28;20627;-59
2022/02/21 04:06:41;;;;;;;0.60;0.50;;;5.80;99.90;;;;;;5060967;28;20198;-58
2022/02/21 04:09:06;;;;;;;1.92;0.75;;;5.60;99.90;;;;;;5063006;28;20262;-58
2022/02/21 04:11:32;;;;;;;0.60;0.50;;;5.60;99.90;;;;;;5039855;28;20299;-59
2022/02/21 04:13:58;;;;;;;2.00;0.70;;;5.60;99.90;;;;;;5055268;28;20589;-59
2022/02/21 04:16:23;;;;;;;1.07;0.97;;;5.60;99.90;;;;;;5054062;28;20192;-60
2022/02/21 04:18:49;;;;;;;1.27;0.60;;;5.30;99.90;;;;;;5034953;28;20661;-60
2022/02/21 04:21:15;;;;;;;0.80;0.60;;;5.30;99.90;;;;;;5059663;28;20212;-59
2022/02/21 04:23:40;;;;;;;2.13;1.10;;;5.20;99.90;;;;;;5041907;28;20197;-58
2022/02/21 04:26:06;;;;;;;2.20;0.80;;;5.10;99.90;;;;;;5048591;28;20204;-60
2022/02/21 04:28:31;;;;;;;1.50;0.80;;;5.10;99.90;;;;;;5044969;28;20294;-60
2022/02/21 04:30:57;;;;;;;1.83;1.17;;;5.00;99.90;;;;;;5050960;28;20204;-58
2022/02/21 04:33:23;;;;;;;2.00;0.77;;;5.00;99.90;;;;;;5041518;28;20249;-58
2022/02/21 04:35:48;;;;;;;5.00;1.20;;;5.10;99.90;;;;;;5032843;28;20253;-59
2022/02/21 04:38:14;;;;;;;0.97;0.87;;;4.90;99.90;;;;;;5044757;28;20183;-60
2022/02/21 04:40:40;;;;;;;1.80;0.93;;;4.90;99.90;;;;;;5050439;28;20183;-59
2022/02/21 04:43:05;;;;;;;1.40;1.07;;;4.80;99.90;;;;;;5049084;28;20188;-58
2022/02/21 04:45:31;;;;;;;2.20;1.10;;;5.10;99.90;;;;;;5060293;28;20186;-59
2022/02/21 04:47:56;;;;;;;1.53;1.00;;;5.10;99.90;;;;;;5047022;28;20184;-57
2022/02/21 04:50:22;;;;;;;2.07;1.03;;;5.00;99.90;;;;;;5048378;28;20173;-59
2022/02/21 04:52:48;;;;;;;2.27;1.00;;;4.60;99.90;;;;;;5052578;28;20331;-60
2022/02/21 04:55:14;;;;;;;1.80;1.10;;;4.90;99.90;;;;;;5058455;28;20182;-58
2022/02/21 04:57:40;;;;;;;2.83;1.45;;;4.90;99.90;;;;;;5048558;28;20278;-57
2022/02/21 05:00:09;;;;;;;5.28;1.40;;;5.10;99.90;;;;;;5043004;28;20241;-60
2022/02/21 05:02:35;;;;;;;2.80;1.48;;;5.00;99.90;;;;;;5053138;28;20310;-59
2022/02/21 05:05:00;;;;;;;4.20;1.30;;;5.60;99.90;;;;;;5060524;28;20669;-61
2022/02/21 05:07:26;;;;;;;3.17;1.23;;;5.10;99.90;;;;;;5044737;28;20196;-60
2022/02/21 05:09:52;;;;;;;3.47;1.57;;;5.10;99.90;;;;;;5052103;28;20185;-61
2022/02/21 05:12:17;;;;;;;2.67;1.53;;;5.10;99.90;;;;;;5054495;28;20213;-60
2022/02/21 05:14:43;;;;;;;5.27;1.63;;;5.20;99.90;;;;;;5057822;28;20319;-60
2022/02/21 05:17:08;;;;;;;2.70;1.43;;;5.30;99.90;;;;;;5063358;28;20192;-60
2022/02/21 05:19:34;;;;;;;2.17;1.00;;;5.30;99.90;;;;;;5033528;28;20307;-60
2022/02/21 05:22:00;;;;;;;5.60;1.30;;;5.50;99.90;;;;;;5041140;28;20199;-61
2022/02/21 05:24:26;;;;;;;3.77;2.57;;;5.80;99.90;;;;;;5045681;28;20177;-60
2022/02/21 05:26:52;;;;;;;1.97;1.23;;;5.60;99.90;;;;;;5050913;28;20556;-60
2022/02/21 05:29:18;;;;;;;3.05;1.27;;;5.80;99.90;;;;;;5041469;28;20184;-60
2022/02/21 05:31:44;;;;;;;6.15;1.50;;;5.80;99.90;;;;;;5036018;28;20809;-60
2022/02/21 05:34:10;;;;;;;2.90;1.70;;;6.00;99.90;;;;;;5036720;28;20625;-61
2022/02/21 05:36:35;;;;;;;3.40;1.20;;;5.90;99.90;;;;;;5040727;28;20451;-60
2022/02/21 05:39:01;;;;;;;5.90;1.63;;;5.90;99.90;;;;;;5046899;28;20187;-60
2022/02/21 05:41:26;;;;;;;4.17;1.27;;;6.10;99.90;;;;;;5046672;28;20213;-60
2022/02/21 05:43:52;;;;;;;2.33;1.57;;;5.80;99.90;;;;;;5047164;28;20279;-61
2022/02/21 05:46:18;;;;;;;6.40;1.87;;;6.20;99.90;;;;;;5027600;28;20593;-60
2022/02/21 05:48:43;;;;;;;4.83;1.67;;;6.10;99.90;;;;;;5046258;28;20193;-61
2022/02/21 05:51:09;;;;;;;4.17;1.50;;;6.10;99.90;;;;;;5049115;28;20220;-60
2022/02/21 05:53:34;;;;;;;4.93;2.23;;;6.40;99.90;;;;;;5036129;28;20249;-60
2022/02/21 05:56:00;;;;;;;3.87;1.60;;;6.40;99.90;;;;;;5048288;28;21338;-60
2022/02/21 05:58:26;;;;;;;4.53;2.87;;;6.20;99.90;;;;;;5039216;28;20229;-60
2022/02/21 06:00:51;;;;;;;3.80;1.53;;;6.40;99.90;;;;;;5063221;28;20232;-60
2022/02/21 06:03:17;;;;;;;3.70;1.37;;;6.20;99.90;;;;;;5030357;28;20197;-60
2022/02/21 06:05:46;;;;;;;4.80;1.23;;;6.10;99.90;;;;;;5038362;28;20190;-60
2022/02/21 06:08:14;;;;;;;6.10;1.80;;;6.30;99.90;;;;;;5043489;28;20184;-60
2022/02/21 06:10:40;;;;;;;5.85;2.30;;;6.30;99.90;;;;;;5048144;28;20251;-60
2022/02/21 06:13:06;;;;;;;10.07;2.55;;;6.30;99.90;;;;;;5042193;28;20249;-60
2022/02/21 06:15:32;;;;;;;5.10;1.70;;;6.80;99.90;;;;;;5058537;28;20271;-60
2022/02/21 06:17:58;;;;;;;4.07;1.90;;;6.30;99.90;;;;;;5046681;28;20198;-60
2022/02/21 06:20:25;;;;;;;5.20;2.13;;;6.50;99.90;;;;;;5034024;28;20184;-60
2022/02/21 06:22:51;;;;;;;6.30;2.50;;;6.30;99.90;;;;;;5034959;28;20201;-60
2022/02/21 06:25:16;;;;;;;2.83;1.67;;;6.40;99.90;;;;;;5050457;28;20185;-60
2022/02/21 06:27:42;;;;;;;5.17;1.93;;;6.40;99.90;;;;;;5053516;28;20186;-60
2022/02/21 06:30:08;;;;;;;4.83;1.77;;;6.60;99.90;;;;;;5056951;28;20192;-60
2022/02/21 06:32:34;;;;;;;4.15;2.22;;;6.40;99.90;;;;;;5032173;28;20254;-60
2022/02/21 06:35:00;;;;;;;6.33;1.97;;;6.30;99.90;;;;;;5032769;28;20177;-60
2022/02/21 06:37:25;;;;;;;4.03;1.77;;;6.50;99.90;;;;;;5039683;28;20192;-60
2022/02/21 06:39:51;;;;;;;5.40;2.23;;;6.50;99.90;;;;;;5048020;28;20596;-60
2022/02/21 06:42:16;;;;;;;11.40;1.83;;;6.40;99.90;;;;;;5033636;28;20208;-61
2022/02/21 06:44:42;;;;;;;2.47;1.63;;;6.20;99.90;;;;;;5046897;28;20649;-61
2022/02/21 06:47:07;;;;;;;3.30;1.63;;;6.60;99.90;;;;;;5042470;28;20805;-61
2022/02/21 06:49:33;;;;;;;3.40;1.40;;;6.50;99.90;;;;;;5034009;28;20204;-62
2022/02/21 06:51:59;;;;;;;4.60;1.63;;;7.00;99.90;;;;;;5063897;28;20638;-67
2022/02/21 06:54:24;;;;;;;5.23;1.43;;;6.50;99.90;;;;;;5049529;28;20182;-67
2022/02/21 06:56:50;;;;;;;5.57;1.50;;;6.70;99.90;;;;;;5050770;28;20270;-65
2022/02/21 06:59:16;;;;;;;5.83;1.60;;;6.50;99.90;;;;;;5037905;28;20224;-67
2022/02/21 07:01:41;;;;;;;8.20;2.30;;;6.80;99.90;;;;;;5052686;28;20209;-67
2022/02/21 07:04:07;;;;;;;7.60;3.97;;;6.60;99.90;;;;;;5034732;28;20191;-67
2022/02/21 07:06:35;;;;;;;3.90;1.77;;;6.50;99.90;;;;;;5049127;28;20192;-60
2022/02/21 07:09:03;;;;;;;5.82;1.80;;;6.60;99.90;;;;;;5061480;28;20543;-57
2022/02/21 07:11:29;;;;;;;3.65;2.10;;;6.50;99.50;;;;;;5043427;28;20695;-59
2022/02/21 07:13:55;;;;;;;5.67;1.87;;;6.50;99.90;;;;;;5049194;28;20255;-71
2022/02/21 07:16:21;;;;;;;4.93;1.70;;;6.60;99.50;;;;;;5041827;28;20481;-70
2022/02/21 07:18:46;;;;;;;6.80;1.50;;;6.40;98.70;;;;;;5047167;28;20192;-74
2022/02/21 07:21:12;;;;;;;5.23;2.00;;;6.40;98.40;;;;;;5053134;28;20281;-65
2022/02/21 07:23:37;;;;;;;5.23;2.10;;;6.20;97.70;;;;;;5043415;28;20220;-61
2022/02/21 07:26:04;;;;;;;5.40;1.80;;;6.40;97.70;;;;;;5043448;28;20200;-60
2022/02/21 07:28:30;;;;;;;5.28;2.33;;;6.50;97.70;;;;;;5027556;28;20265;-62
2022/02/21 07:30:55;;;;;;;4.05;1.67;;;6.20;97.20;;;;;;5028396;28;20221;-63
2022/02/21 07:33:21;;;;;;;5.47;1.93;;;6.30;97.30;;;;;;5045928;28;20561;-58
2022/02/21 07:35:47;;;;;;;7.73;2.03;;;6.40;97.80;;;;;;5051677;28;20180;-58
2022/02/21 07:38:12;;;;;;;4.53;1.80;;;6.50;97.50;;;;;;5053474;28;20192;-60
2022/02/21 07:40:38;;;;;;;5.70;2.87;;;6.60;97.20;;;;;;5042768;28;20723;-61
2022/02/21 07:43:03;;;;;;;4.70;2.40;;;6.40;96.70;;;;;;5043005;28;20184;-61
2022/02/21 07:45:29;;;;;;;7.30;2.10;;;6.40;96.60;;;;;;5054858;28;20213;-61
2022/02/21 07:47:57;;;;;;;10.40;2.53;;;6.30;96.60;;;;;;5051962;28;20195;-62
2022/02/21 07:50:28;;;;;;;6.25;2.35;;;6.70;96.80;;;;;;5044416;28;20213;-60
2022/02/21 07:52:55;;;;;;;5.72;2.15;;;6.50;96.60;;;;;;5049599;28;20591;-58
2022/02/21 07:55:20;;;;;;;5.38;2.00;;;6.60;96.40;;;;;;5045477;28;20180;-59
2022/02/21 07:57:46;;;;;;;8.33;2.40;;;6.50;95.70;;;;;;5030997;28;20720;-58
2022/02/21 08:00:14;;;;;;;6.57;1.83;;;6.50;95.90;;;;;;5047111;28;20984;-58
2022/02/21 08:02:41;;;;;;;8.45;2.85;;;6.60;95.80;;;;;;5053765;28;20226;-57
2022/02/21 08:05:07;;;;;;;8.68;4.50;;;7.00;96.10;;;;;;5044690;28;20573;-59
2022/02/21 08:07:33;;;;;;;7.05;2.33;;;6.80;95.70;;;;;;5039850;28;20285;-62
2022/02/21 08:09:58;;;;;;;5.60;2.10;;;6.90;95.40;;;;;;5046745;28;20604;-58
2022/02/21 08:12:24;;;;;;;6.53;1.97;;;7.20;95.80;;;;;;5052422;28;20276;-58
2022/02/21 08:14:50;;;;;;;6.30;3.37;;;7.00;95.30;;;;;;5035012;28;20194;-57
2022/02/21 08:17:15;;;;;;;6.40;1.97;;;7.30;94.80;;;;;;5038294;28;20189;-59
2022/02/21 08:19:41;;;;;;;6.00;2.33;;;7.50;94.80;;;;;;5033121;28;20228;-59
2022/02/21 08:22:08;;;;;;;5.43;2.10;;;7.40;94.60;;;;;;5024903;28;20206;-58
2022/02/21 08:24:33;;;;;;;4.60;1.77;;;7.60;94.80;;;;;;5035602;28;20674;-62
2022/02/21 08:26:59;;;;;;;5.57;2.23;;;7.60;94.10;;;;;;5049330;28;20205;-63
2022/02/21 08:29:25;;;;;;;5.27;2.30;;;7.80;93.80;;;;;;5059474;28;20533;-56
2022/02/21 08:31:51;;;;;;;12.97;2.30;;;7.90;93.60;;;;;;5049177;28;20214;-61
2022/02/21 08:34:18;;;;;;;7.45;1.60;;;8.00;93.20;;;;;;5034995;28;20224;-62
2022/02/21 08:36:43;;;;;;;7.63;2.72;;;8.20;92.90;;;;;;5049057;28;20186;-58
2022/02/21 08:39:09;;;;;;;11.30;2.77;;;8.60;93.20;;;;;;5053622;28;20197;-59
2022/02/21 08:41:35;;;;;;;3.40;1.30;;;8.50;93.00;;;;;;5034608;28;20228;-58
2022/02/21 08:44:00;;;;;;;8.13;2.20;;;8.20;92.20;;;;;;5044173;28;20186;-59
2022/02/21 08:46:26;;;;;;;5.80;2.10;;;8.20;92.00;;;;;;5040350;28;20213;-59
2022/02/21 08:48:54;;;;;;;7.43;2.53;;;8.50;92.70;;;;;;5033358;28;20666;-59
2022/02/21 08:51:20;;;;;;;6.50;2.00;;;8.80;93.00;;;;;;5046818;28;20228;-61
2022/02/21 08:53:46;;;;;;;4.40;1.70;;;8.60;91.90;;;;;;5042806;28;20186;-58
2022/02/21 08:56:11;;;;;;;4.50;2.17;;;8.90;91.60;;;;;;5043740;28;20251;-59
2022/02/21 08:58:37;;;;;;;4.90;2.30;;;8.80;91.50;;;;;;5030397;28;20190;-57
2022/02/21 09:01:02;;;;;;;5.53;1.77;;;8.70;91.60;;;;;;5051771;28;20210;-57
2022/02/21 09:03:28;;;;;;;6.93;3.07;;;8.70;91.80;;;;;;5046121;28;20202;-58
2022/02/21 09:05:54;;;;;;;4.43;1.97;;;8.90;92.00;;;;;;5041058;28;20240;-61
2022/02/21 09:08:20;;;;;;;5.13;1.70;;;9.40;91.70;;;;;;5041965;28;20197;-61
2022/02/21 09:10:46;;;;;;;2.63;1.33;;;9.90;90.50;;;;;;5045334;28;20470;-61
2022/02/21 09:13:12;;;;;;;6.45;2.30;;;10.40;86.70;;;;;;5039972;28;20954;-63
2022/02/21 09:15:37;;;;;;;9.00;2.50;;;10.50;86.40;;;;;;5039979;28;20224;-63
2022/02/21 09:18:05;;;;;;;4.87;1.60;;;10.30;87.40;;;;;;5048558;28;20198;-63
2022/02/21 09:20:31;;;;;;;4.85;1.92;;;10.60;86.10;;;;;;5044877;28;20198;-59
2022/02/21 09:22:57;;;;;;;1.60;1.30;;;11.40;85.00;;;;;;5060873;28;20265;-59
2022/02/21 09:25:23;;;;;;;6.57;1.70;;;11.60;82.40;;;;;;5041826;28;20268;-59
2022/02/21 09:27:49;;;;;;;4.70;1.50;;;11.50;81.60;;;;;;5050461;28;20192;-58
2022/02/21 09:30:14;;;;;;;2.80;1.60;;;11.40;82.30;;;;;;5043116;28;20935;-58
2022/02/21 09:32:40;;;;;;;5.40;1.50;;;11.10;81.90;;;;;;5039355;28;20294;-61
2022/02/21 09:35:07;;;;;;;5.43;1.80;;;11.20;82.80;;;;;;5044667;28;20183;-65
2022/02/21 09:37:35;;;;;;;3.00;1.95;;;11.20;83.10;;;;;;5047334;28;20446;-58
2022/02/21 09:40:02;;;;;;;5.65;3.20;;;11.80;81.10;;;;;;5047502;28;20205;-58
2022/02/21 09:42:28;;;;;;;8.68;1.63;;;11.60;79.50;;;;;;5053040;28;20212;-57
2022/02/21 09:44:54;;;;;;;4.90;1.50;;;11.80;80.30;;;;;;5030480;28;20227;-58
2022/02/21 09:47:22;;;;;;;3.57;1.97;;;11.40;79.90;;;;;;5055891;28;20216;-57
2022/02/21 09:49:49;;;;;;;3.50;1.67;;;11.60;81.10;;;;;;5044003;28;20299;-57
2022/02/21 09:52:15;;;;;;;3.17;1.48;;;12.50;78.00;;;;;;5049474;28;20223;-58
2022/02/21 09:54:40;;;;;;;4.30;1.57;;;13.00;76.40;;;;;;5046304;28;20189;-57
2022/02/21 09:57:07;;;;;;;3.70;1.80;;;12.80;73.70;;;;;;5033314;28;20655;-58
2022/02/21 09:59:33;;;;;;;4.65;1.50;;;13.60;73.80;;;;;;5043919;28;20188;-59
2022/02/21 10:02:00;;;;;;;4.57;1.70;;;13.90;72.80;;;;;;5039965;28;20218;-58
2022/02/21 10:04:30;;;;;;;2.67;1.45;;;14.30;69.40;;;;;;5031926;28;20713;-58
2022/02/21 10:06:56;;;;;;;3.28;1.52;;;14.10;69.40;;;;;;5035926;28;20198;-59
2022/02/21 10:09:26;;;;;;;6.25;2.85;;;13.90;68.40;;;;;;5046114;28;20713;-58
2022/02/21 10:11:55;;;;;;;3.85;1.88;;;13.90;68.30;;;;;;5043475;28;20756;-58
2022/02/21 10:14:23;;;;;;;6.00;1.70;;;13.70;68.20;;;;;;5032612;28;20178;-59
2022/02/21 10:16:53;;;;;;;2.72;1.73;;;13.10;70.10;;;;;;5041234;28;20201;-62
2022/02/21 10:19:38;;;;;;;5.38;2.15;;;13.00;69.20;;;;;;5037625;28;20178;-59
2022/02/21 10:22:14;;;;;;;1.50;1.30;;;12.70;70.40;;;;;;5049655;28;20654;-60
2022/02/21 10:24:46;;;;;;;4.47;1.95;;;12.90;71.10;;;;;;5047680;28;20650;-60
2022/02/21 10:27:19;;;;;;;3.78;2.05;;;13.40;69.20;;;;;;5041796;28;20285;-61
2022/02/21 10:29:47;;;;;;;4.18;1.80;;;13.30;68.40;;;;;;5041194;28;20201;-58
2022/02/21 10:32:14;;;;;;;6.07;1.90;;;12.80;69.80;;;;;;5047750;28;20244;-64
2022/02/21 10:34:42;;;;;;;6.47;1.55;;;12.40;69.50;;;;;;5039747;28;20186;-64
2022/02/21 10:37:08;;;;;;;3.58;1.60;;;12.20;71.90;;;;;;5046791;28;20186;-60
2022/02/21 10:39:35;;;;;;;4.93;1.55;;;12.70;72.00;;;;;;5044474;28;20182;-57
2022/02/21 10:42:07;;;;;;;2.90;1.20;;;12.80;69.10;;;;;;5056347;28;20209;-59
2022/02/21 10:44:38;;;;;;;5.47;1.55;;;13.40;67.80;;;;;;5046080;28;20186;-59
2022/02/21 10:47:09;;;;;;;4.28;2.08;;;12.70;67.20;;;;;;5035773;28;20209;-59
2022/02/21 10:49:38;;;;;;;7.43;1.83;;;12.60;67.20;;;;;;5037885;28;20193;-59
2022/02/21 10:52:12;;;;;;;4.15;1.60;;;12.90;67.20;;;;;;5061317;28;20246;-59
2022/02/21 10:54:38;;;;;;;3.28;1.35;;;12.90;66.20;;;;;;5052848;28;20626;-59
2022/02/21 10:57:07;;;;;;;8.23;1.83;;;13.90;65.80;;;;;;5047743;28;20186;-60
2022/02/21 10:59:33;;;;;;;4.13;1.70;;;14.30;63.40;;;;;;5050777;28;20185;-59
2022/02/21 11:02:02;;;;;;;4.80;1.70;;;14.10;61.70;;;;;;5058022;28;20939;-59
2022/02/21 11:04:30;;;;;;;1.55;1.13;;;14.00;62.40;;;;;;5034685;28;20445;-59
2022/02/21 11:06:57;;;;;;;4.70;2.17;;;13.60;62.00;;;;;;5032145;28;20198;-59
2022/02/21 11:09:26;;;;;;;3.13;1.40;;;13.20;62.90;;;;;;5062096;28;20186;-59
2022/02/21 11:11:54;;;;;;;1.83;1.40;;;13.20;62.90;;;;;;5058365;28;20204;-59
2022/02/21 11:14:26;;;;;;;4.05;1.35;;;13.60;62.50;;;;;;5055561;28;20181;-59
2022/02/21 11:16:53;;;;;;;4.15;1.95;;;13.20;61.90;;;;;;5059020;28;20295;-58
2022/02/21 11:19:19;;;;;;;4.07;1.42;;;13.20;63.70;;;;;;5039779;28;20193;-59
2022/02/21 11:21:46;;;;;;;4.50;1.50;;;12.70;63.00;;;;;;5053831;28;20209;-58
2022/02/21 11:24:18;;;;;;;2.40;1.42;;;12.50;64.40;;;;;;5044011;28;20738;-59
2022/02/21 11:27:02;;;;;;;1.60;1.10;;;12.00;65.90;;;;;;5040828;28;20201;-59
2022/02/21 11:29:38;;;;;;;5.50;2.10;;;11.50;69.80;;;;;;5053176;28;20219;-60
2022/02/21 11:32:04;;;;;;;10.15;1.90;;;11.90;70.70;;;;;;5058552;28;20241;-58
2022/02/21 11:34:29;;;;;;;3.90;1.20;;;12.00;71.00;;;;;;5036374;28;20185;-58
2022/02/21 11:36:59;;;;;;;3.23;2.20;;;11.70;73.20;;;;;;5067931;28;20662;-58
2022/02/21 11:39:28;;;;;;;6.38;1.40;;;11.40;75.90;;;;;;5054307;28;20184;-59
2022/02/21 11:42:16;;;;;;;4.03;1.92;;;10.60;79.20;;;;;;5052562;28;20682;-59
2022/02/21 11:44:49;;;;;;;5.25;1.60;;;10.50;81.00;;;;;;5031751;28;20224;-57
2022/02/21 11:47:47;;;;;;;3.55;1.70;;;10.20;87.10;;;;;;5038364;28;20761;-59
2022/02/21 11:50:19;;;;;;;4.00;1.50;;;10.80;89.80;;;;;;5054452;28;20350;-59
2022/02/21 11:52:50;;;;;;;6.82;1.42;;;11.60;87.10;;;;;;5048820;28;20240;-61
2022/02/21 11:55:38;;;;;;;3.22;1.80;;;12.00;79.90;;;;;;5040404;28;20189;-59
2022/02/21 11:58:16;;;;;;;1.42;1.20;;;12.10;76.80;;;;;;5030545;28;20182;-61
2022/02/21 12:00:43;;;;;;;3.58;1.45;;;12.10;75.70;;;;;;5047675;28;20185;-59
2022/02/21 12:03:15;;;;;;;4.72;1.48;;;12.40;75.80;;;;;;5038737;28;20252;-61
2022/02/21 12:05:41;;;;;;;3.60;1.27;;;12.30;74.10;;;;;;5039034;28;20190;-61
2022/02/21 12:08:40;;;;;;;4.07;1.58;;;12.00;72.60;;;;;;5037445;28;20192;-61
2022/02/21 12:11:13;;;;;;;4.53;2.08;;;11.50;73.20;;;;;;5039734;28;20226;-69
2022/02/21 12:13:44;;;;;;;4.80;1.83;;;11.40;73.50;;;;;;5043366;28;20198;-58
2022/02/21 12:16:12;;;;;;;3.30;1.20;;;11.10;72.60;;;;;;5046982;28;20186;-59
2022/02/21 12:18:43;;;;;;;2.60;1.50;;;10.90;72.10;;;;;;5041724;28;20185;-63
2022/02/21 12:21:24;;;;;;;1.33;1.10;;;11.00;70.40;;;;;;5042563;28;20659;-64
2022/02/21 12:23:53;;;;;;;1.75;1.10;;;11.00;70.00;;;;;;5045810;28;20569;-64
2022/02/21 12:26:22;;;;;;;1.55;1.10;;;10.70;68.80;;;;;;5044686;28;20646;-61
2022/02/21 12:29:07;;;;;;;3.03;1.65;;;10.90;69.10;;;;;;5026089;28;20505;-63
2022/02/21 12:31:33;;;;;;;4.20;1.55;;;10.80;68.70;;;;;;5047966;28;20205;-60
2022/02/21 12:33:59;;;;;;;2.08;1.33;;;10.70;68.60;;;;;;5039775;28;20199;-60
2022/02/21 12:36:33;;;;;;;2.17;1.10;;;10.30;68.50;;;;;;5036975;28;20190;-60
2022/02/21 12:38:59;;;;;;;2.33;1.58;;;10.30;69.00;;;;;;5048036;28;20980;-63
2022/02/21 12:41:34;;;;;;;2.60;1.50;;;10.40;69.80;;;;;;5036890;28;20325;-60
2022/02/21 12:44:02;;;;;;;3.70;1.40;;;10.50;70.10;;;;;;5051406;28;20248;-61
2022/02/21 12:46:29;;;;;;;2.42;1.23;;;10.40;69.70;;;;;;5043376;28;20190;-59
2022/02/21 12:48:56;;;;;;;3.28;1.50;;;10.20;70.50;;;;;;5033327;28;20236;-60